Time;durP1;ratioP1;P1;durP2;ratioP2;P2;SDS_P1;SDS_P2;PMS_P1;PMS_P2;Temp;Humidity;BMP_temperature;BMP_pressure;BME280_temperature;BME280_humidity;BME280_pressure;Samples;Min_cycle;Max_cycle;Signal;HPM_P1;HPM_P2
2021/11/22 00:00:31;;;;;;;67.88;36.75;;;5.20;99.90;;;;;;4994117;28;20097;-73
2021/11/22 00:02:59;;;;;;;69.10;37.47;;;5.20;99.90;;;;;;4994415;28;20096;-73
2021/11/22 00:05:26;;;;;;;63.08;35.72;;;5.20;99.90;;;;;;4994022;28;20113;-73
2021/11/22 00:07:51;;;;;;;63.28;33.83;;;5.20;99.90;;;;;;4994483;28;20030;-74
2021/11/22 00:10:17;;;;;;;60.28;30.17;;;5.20;99.90;;;;;;4994514;28;20495;-73
2021/11/22 00:12:44;;;;;;;52.38;29.00;;;5.20;99.90;;;;;;4977059;28;20033;-74
2021/11/22 00:15:12;;;;;;;49.53;27.90;;;5.20;99.90;;;;;;4993531;28;20030;-73
2021/11/22 00:17:38;;;;;;;49.65;26.35;;;5.30;99.90;;;;;;4976940;28;20077;-73
2021/11/22 00:20:05;;;;;;;51.72;26.65;;;5.30;99.90;;;;;;4976828;28;20034;-74
2021/11/22 00:22:31;;;;;;;50.20;26.17;;;5.30;99.90;;;;;;4994219;28;20034;-74
2021/11/22 00:24:57;;;;;;;55.65;28.60;;;5.30;99.90;;;;;;4994189;28;20019;-73
2021/11/22 00:27:22;;;;;;;55.42;28.35;;;5.30;99.90;;;;;;4994309;28;20023;-74
2021/11/22 00:29:48;;;;;;;53.60;29.52;;;5.30;99.90;;;;;;4993982;28;20022;-73
2021/11/22 00:32:14;;;;;;;59.60;31.60;;;5.40;99.90;;;;;;4994226;28;20101;-73
2021/11/22 00:34:42;;;;;;;58.92;31.63;;;5.30;99.90;;;;;;4992684;28;20443;-74
2021/11/22 00:37:17;;;;;;;60.47;31.80;;;5.30;99.90;;;;;;4992966;28;20109;-74
2021/11/22 00:39:43;;;;;;;55.80;30.73;;;5.30;99.90;;;;;;4993825;28;20081;-73
2021/11/22 00:42:09;;;;;;;58.90;33.33;;;5.40;99.90;;;;;;4992726;28;20034;-74
2021/11/22 00:44:36;;;;;;;60.03;32.70;;;5.40;99.90;;;;;;4983849;28;20030;-73
2021/11/22 00:47:04;;;;;;;59.92;32.38;;;5.40;99.90;;;;;;4993762;28;20022;-74
2021/11/22 00:49:29;;;;;;;57.92;31.88;;;5.30;99.90;;;;;;4976380;28;20018;-73
2021/11/22 00:51:55;;;;;;;62.38;31.35;;;5.30;99.90;;;;;;4975546;28;20037;-74
2021/11/22 00:54:20;;;;;;;59.00;33.15;;;5.30;99.90;;;;;;4993749;28;20046;-73
2021/11/22 00:56:46;;;;;;;53.45;29.73;;;5.30;99.90;;;;;;4993760;28;20026;-74
2021/11/22 00:59:12;;;;;;;52.33;29.75;;;5.30;99.90;;;;;;4993610;28;20506;-73
2021/11/22 01:01:37;;;;;;;52.95;29.52;;;5.30;99.90;;;;;;4993654;28;20037;-74
2021/11/22 01:04:04;;;;;;;55.85;30.98;;;5.30;99.90;;;;;;4993681;28;20504;-73
2021/11/22 01:06:30;;;;;;;55.97;28.13;;;5.30;99.90;;;;;;4993687;28;20014;-74
2021/11/22 01:08:56;;;;;;;54.95;28.95;;;5.30;99.90;;;;;;4992277;28;20161;-74
2021/11/22 01:11:21;;;;;;;53.10;28.17;;;5.30;99.90;;;;;;4993538;28;20119;-74
2021/11/22 01:13:47;;;;;;;59.08;32.25;;;5.30;99.90;;;;;;4993570;28;20027;-74
2021/11/22 01:16:13;;;;;;;54.03;27.42;;;5.30;99.90;;;;;;4992279;28;20038;-73
2021/11/22 01:18:39;;;;;;;51.00;27.48;;;5.40;99.90;;;;;;4993462;28;20030;-73
2021/11/22 01:21:04;;;;;;;54.60;30.25;;;5.40;99.90;;;;;;4975914;28;20468;-73
2021/11/22 01:23:30;;;;;;;52.90;27.58;;;5.40;99.90;;;;;;4993468;28;20022;-73
2021/11/22 01:25:56;;;;;;;54.80;28.17;;;5.50;99.90;;;;;;4979249;28;20495;-73
2021/11/22 01:28:22;;;;;;;53.20;28.67;;;5.50;99.90;;;;;;5000096;28;20034;-74
2021/11/22 01:30:47;;;;;;;52.03;28.08;;;5.50;99.90;;;;;;4999865;28;20061;-73
2021/11/22 01:33:13;;;;;;;54.58;28.38;;;5.50;99.90;;;;;;4999953;28;20019;-74
2021/11/22 01:35:44;;;;;;;55.17;29.05;;;5.50;99.90;;;;;;5000070;28;20030;-73
2021/11/22 01:38:11;;;;;;;50.75;27.08;;;5.40;99.90;;;;;;4999938;28;20034;-73
2021/11/22 01:40:37;;;;;;;57.78;29.00;;;5.40;99.90;;;;;;4999764;28;20022;-73
2021/11/22 01:43:03;;;;;;;56.00;29.27;;;5.40;99.90;;;;;;4982601;28;20042;-73
2021/11/22 01:45:31;;;;;;;55.97;28.67;;;5.40;99.90;;;;;;4999751;28;20383;-73
2021/11/22 01:47:58;;;;;;;60.97;30.08;;;5.40;99.90;;;;;;4982252;28;20019;-73
2021/11/22 01:50:25;;;;;;;52.83;30.33;;;5.40;99.90;;;;;;4999638;28;20022;-73
2021/11/22 01:52:52;;;;;;;57.20;28.88;;;5.40;99.90;;;;;;4999660;28;20030;-74
2021/11/22 01:55:20;;;;;;;61.50;29.65;;;5.30;99.90;;;;;;4999627;28;20479;-74
2021/11/22 01:57:48;;;;;;;53.22;28.65;;;5.30;99.90;;;;;;4982238;28;20022;-74
2021/11/22 02:00:23;;;;;;;59.80;30.23;;;5.30;99.90;;;;;;4999562;28;20023;-73
2021/11/22 02:02:49;;;;;;;58.80;30.52;;;5.40;99.90;;;;;;4982057;28;20518;-74
2021/11/22 02:05:15;;;;;;;53.40;28.13;;;5.40;99.90;;;;;;4981989;28;20018;-73
2021/11/22 02:07:41;;;;;;;58.47;29.45;;;5.30;99.90;;;;;;4982154;28;20109;-74
2021/11/22 02:10:08;;;;;;;56.80;29.83;;;5.30;99.90;;;;;;4999341;28;20029;-73
2021/11/22 02:12:34;;;;;;;60.38;31.15;;;5.30;99.90;;;;;;4982039;28;20038;-74
2021/11/22 02:15:01;;;;;;;54.67;29.75;;;5.30;99.90;;;;;;4999475;28;20037;-73
2021/11/22 02:17:27;;;;;;;53.10;29.42;;;5.30;99.90;;;;;;4999663;28;20021;-73
2021/11/22 02:19:56;;;;;;;58.58;30.35;;;5.30;99.90;;;;;;4999395;28;20026;-73
2021/11/22 02:22:22;;;;;;;57.22;31.67;;;5.30;99.90;;;;;;4999397;28;20105;-74
2021/11/22 02:24:48;;;;;;;57.63;30.58;;;5.30;99.90;;;;;;4999296;28;20029;-74
2021/11/22 02:27:14;;;;;;;61.67;31.75;;;5.30;99.90;;;;;;4981968;28;20052;-74
2021/11/22 02:29:39;;;;;;;56.70;30.00;;;5.30;99.90;;;;;;4999341;28;20026;-73
2021/11/22 02:32:05;;;;;;;50.60;27.77;;;5.30;99.90;;;;;;4981994;28;20484;-73
2021/11/22 02:34:31;;;;;;;56.30;28.95;;;5.30;99.90;;;;;;4999140;28;20027;-74
2021/11/22 02:36:57;;;;;;;63.45;31.20;;;5.30;99.90;;;;;;4997281;28;20098;-74
2021/11/22 02:39:22;;;;;;;55.60;26.98;;;5.30;99.90;;;;;;4978712;28;20034;-73
2021/11/22 02:41:48;;;;;;;53.15;28.40;;;5.30;99.90;;;;;;4996210;28;20042;-74
2021/11/22 02:44:14;;;;;;;57.60;29.10;;;5.20;99.90;;;;;;4978718;28;20025;-73
2021/11/22 02:46:39;;;;;;;51.95;26.40;;;5.20;99.90;;;;;;4996282;28;20032;-74
2021/11/22 02:49:05;;;;;;;58.60;28.10;;;5.20;99.90;;;;;;4995945;28;20030;-73
2021/11/22 02:51:31;;;;;;;62.15;32.90;;;5.20;99.90;;;;;;4978558;28;20022;-74
2021/11/22 02:53:59;;;;;;;62.63;29.98;;;5.20;99.90;;;;;;4995989;28;20411;-74
2021/11/22 02:56:28;;;;;;;64.85;30.95;;;5.20;99.90;;;;;;4978565;28;20450;-73
2021/11/22 02:58:54;;;;;;;60.88;30.67;;;5.30;99.90;;;;;;4978325;28;20125;-73
2021/11/22 03:01:20;;;;;;;61.05;29.73;;;5.20;99.90;;;;;;4978306;28;20117;-74
2021/11/22 03:03:45;;;;;;;57.92;30.73;;;5.30;99.90;;;;;;4995817;28;20030;-73
2021/11/22 03:06:13;;;;;;;64.15;30.33;;;5.30;99.90;;;;;;4995779;28;20034;-74
2021/11/22 03:08:41;;;;;;;65.10;29.75;;;5.20;99.90;;;;;;4995630;28;20072;-73
2021/11/22 03:11:08;;;;;;;67.55;31.85;;;5.20;99.90;;;;;;4978147;28;20022;-73
2021/11/22 03:13:34;;;;;;;66.20;32.03;;;5.20;99.90;;;;;;4995724;28;20026;-74
2021/11/22 03:16:00;;;;;;;61.20;30.15;;;5.10;99.90;;;;;;4995476;28;20061;-74
2021/11/22 03:18:26;;;;;;;67.45;29.88;;;5.10;99.90;;;;;;4995398;28;20022;-74
2021/11/22 03:20:52;;;;;;;76.50;33.35;;;5.10;99.90;;;;;;4977832;28;20382;-74
2021/11/22 03:23:18;;;;;;;70.43;34.17;;;5.20;99.90;;;;;;4995564;28;20035;-73
2021/11/22 03:25:43;;;;;;;69.40;31.88;;;5.10;99.90;;;;;;4995354;28;20464;-73
2021/11/22 03:28:11;;;;;;;74.97;32.78;;;5.10;99.90;;;;;;4995459;28;20022;-74
2021/11/22 03:30:38;;;;;;;75.30;33.25;;;5.10;99.90;;;;;;4995270;28;20029;-73
2021/11/22 03:33:05;;;;;;;86.32;32.95;;;5.00;99.90;;;;;;4995221;28;20484;-73
2021/11/22 03:35:31;;;;;;;76.43;33.15;;;5.00;99.90;;;;;;4995510;28;20077;-73
2021/11/22 03:37:57;;;;;;;81.20;34.05;;;4.90;99.90;;;;;;4977667;28;20117;-73
2021/11/22 03:40:23;;;;;;;77.45;31.85;;;4.90;99.90;;;;;;4995113;28;20030;-73
2021/11/22 03:42:55;;;;;;;81.32;34.83;;;4.90;99.90;;;;;;4977614;28;20405;-74
2021/11/22 03:45:21;;;;;;;83.93;37.20;;;4.90;99.90;;;;;;4977549;28;20037;-73
2021/11/22 03:47:47;;;;;;;78.28;35.05;;;5.00;99.90;;;;;;4994990;28;20408;-73
2021/11/22 03:50:13;;;;;;;90.03;34.05;;;5.00;99.90;;;;;;4994901;28;20373;-74
2021/11/22 03:52:38;;;;;;;80.57;37.60;;;5.00;99.90;;;;;;4994935;28;20030;-74
2021/11/22 03:55:04;;;;;;;85.95;35.33;;;5.00;99.90;;;;;;4994772;28;20030;-74
2021/11/22 03:57:30;;;;;;;78.32;33.10;;;5.00;99.90;;;;;;4994919;28;20038;-75
2021/11/22 03:59:57;;;;;;;78.18;34.17;;;5.00;99.90;;;;;;4977092;28;20117;-73
2021/11/22 04:02:23;;;;;;;75.93;34.67;;;5.00;99.90;;;;;;4994669;28;20391;-73
2021/11/22 04:04:48;;;;;;;78.07;33.85;;;5.00;99.90;;;;;;4994640;28;20097;-73
2021/11/22 04:07:14;;;;;;;80.57;34.05;;;5.00;99.90;;;;;;4994589;28;20034;-75
2021/11/22 04:09:40;;;;;;;81.20;34.80;;;5.00;99.90;;;;;;4977069;28;20022;-73
2021/11/22 04:12:06;;;;;;;82.90;33.03;;;5.00;99.90;;;;;;4994486;28;20030;-74
2021/11/22 04:14:31;;;;;;;80.60;32.53;;;5.00;99.90;;;;;;4994450;28;20404;-73
2021/11/22 04:16:57;;;;;;;79.03;33.03;;;5.00;99.90;;;;;;4994388;28;20030;-73
2021/11/22 04:19:23;;;;;;;74.10;33.92;;;5.00;99.90;;;;;;4977128;28;20091;-73
2021/11/22 04:21:49;;;;;;;88.63;33.40;;;5.00;99.90;;;;;;4994285;28;20041;-74
2021/11/22 04:24:15;;;;;;;79.28;33.47;;;5.00;99.90;;;;;;4994311;28;20034;-73
2021/11/22 04:26:40;;;;;;;74.50;32.67;;;5.00;99.90;;;;;;4976853;28;20068;-74
2021/11/22 04:29:06;;;;;;;88.88;37.20;;;5.00;99.90;;;;;;4994133;28;20022;-73
2021/11/22 04:31:32;;;;;;;84.55;33.75;;;5.00;99.90;;;;;;4994287;28;20026;-75
2021/11/22 04:33:58;;;;;;;86.15;33.80;;;5.00;99.90;;;;;;4994086;28;20022;-73
2021/11/22 04:36:23;;;;;;;95.25;38.70;;;5.00;99.90;;;;;;4994009;28;20062;-74
2021/11/22 04:38:49;;;;;;;78.63;34.15;;;5.00;99.90;;;;;;4994097;28;20062;-74
2021/11/22 04:41:15;;;;;;;93.03;35.63;;;5.00;99.90;;;;;;4993938;28;20026;-73
2021/11/22 04:43:41;;;;;;;94.57;35.13;;;5.00;99.90;;;;;;4993940;28;20019;-74
2021/11/22 04:46:07;;;;;;;92.05;38.05;;;5.00;99.90;;;;;;4993662;28;20030;-73
2021/11/22 04:48:32;;;;;;;91.90;35.45;;;5.00;99.90;;;;;;4993928;28;20069;-74
2021/11/22 04:50:58;;;;;;;81.13;32.20;;;5.00;99.90;;;;;;4976336;28;20018;-73
2021/11/22 04:53:24;;;;;;;88.65;33.83;;;5.00;99.90;;;;;;4993823;28;20053;-73
2021/11/22 04:55:51;;;;;;;81.70;34.25;;;5.00;99.90;;;;;;4976294;28;20054;-73
2021/11/22 04:58:16;;;;;;;97.75;36.25;;;5.00;99.90;;;;;;4993795;28;20033;-73
2021/11/22 05:00:42;;;;;;;89.47;34.40;;;5.00;99.90;;;;;;4975652;28;20026;-73
2021/11/22 05:03:08;;;;;;;97.13;40.00;;;5.00;99.90;;;;;;4972697;28;20088;-74
2021/11/22 05:05:34;;;;;;;401.42;155.65;;;4.90;99.90;;;;;;4974264;28;20046;-73
2021/11/22 05:08:06;;;;;;;215.15;93.20;;;5.00;99.90;;;;;;4956858;28;20015;-73
2021/11/22 05:10:41;;;;;;;218.63;104.68;;;5.00;99.90;;;;;;4956730;28;20035;-73
2021/11/22 05:13:08;;;;;;;198.30;92.45;;;5.00;99.90;;;;;;4974294;28;20042;-73
2021/11/22 05:15:36;;;;;;;301.05;131.68;;;5.00;99.90;;;;;;4974131;28;20019;-73
2021/11/22 05:18:03;;;;;;;144.70;55.67;;;5.00;99.90;;;;;;4974067;28;20480;-73
2021/11/22 05:20:29;;;;;;;408.95;187.27;;;5.00;99.90;;;;;;4974068;28;20042;-74
2021/11/22 05:22:56;;;;;;;401.80;171.55;;;5.00;99.90;;;;;;4980502;28;20045;-73
2021/11/22 05:25:22;;;;;;;322.90;133.55;;;5.00;99.90;;;;;;4993311;28;20029;-73
2021/11/22 05:27:48;;;;;;;163.57;63.90;;;5.00;99.90;;;;;;4976025;28;20056;-73
2021/11/22 05:30:14;;;;;;;419.50;171.45;;;5.00;99.90;;;;;;4993334;28;20479;-74
2021/11/22 05:32:40;;;;;;;430.98;173.98;;;4.90;99.90;;;;;;4993422;28;20547;-74
2021/11/22 05:35:06;;;;;;;402.83;160.13;;;5.00;99.90;;;;;;4993138;28;20522;-73
2021/11/22 05:37:34;;;;;;;229.82;78.85;;;5.00;99.90;;;;;;4993313;28;20026;-74
2021/11/22 05:39:59;;;;;;;137.70;40.00;;;5.00;99.90;;;;;;4975427;28;20029;-74
2021/11/22 05:42:25;;;;;;;137.88;42.65;;;4.90;99.90;;;;;;4993236;28;20109;-74
2021/11/22 05:44:51;;;;;;;155.90;40.00;;;5.00;99.90;;;;;;4975787;28;20038;-73
2021/11/22 05:47:18;;;;;;;220.18;48.22;;;4.90;99.90;;;;;;4993349;28;20026;-73
2021/11/22 05:49:45;;;;;;;357.90;101.20;;;4.90;99.90;;;;;;4975752;28;20459;-73
2021/11/22 05:52:12;;;;;;;284.42;71.38;;;4.90;99.90;;;;;;4993204;28;20022;-73
2021/11/22 05:54:46;;;;;;;211.82;54.55;;;4.90;99.90;;;;;;4975676;28;20029;-73
2021/11/22 05:57:12;;;;;;;199.02;59.85;;;4.90;99.90;;;;;;4993209;28;20026;-73
2021/11/22 05:59:38;;;;;;;207.75;46.72;;;4.90;99.90;;;;;;4993055;28;20030;-74
2021/11/22 06:02:04;;;;;;;108.18;32.38;;;4.80;99.90;;;;;;4993053;28;20035;-74
2021/11/22 06:04:29;;;;;;;173.45;51.78;;;4.90;99.90;;;;;;4993109;28;20031;-73
2021/11/22 06:06:56;;;;;;;145.85;38.88;;;4.90;99.90;;;;;;4993082;28;20418;-74
2021/11/22 06:09:22;;;;;;;235.80;68.95;;;4.80;99.90;;;;;;4992861;28;20018;-73
2021/11/22 06:11:47;;;;;;;404.67;131.38;;;4.80;99.90;;;;;;4992940;28;20041;-73
2021/11/22 06:14:13;;;;;;;229.02;65.53;;;4.80;99.90;;;;;;4977600;28;20027;-73
2021/11/22 06:16:39;;;;;;;258.67;85.45;;;4.80;99.90;;;;;;4977997;28;20014;-73
2021/11/22 06:19:04;;;;;;;214.05;48.88;;;4.80;99.90;;;;;;4996160;28;20029;-74
2021/11/22 06:21:30;;;;;;;410.52;129.25;;;4.80;99.90;;;;;;4995645;28;20034;-74
2021/11/22 06:23:56;;;;;;;284.17;107.07;;;4.80;99.90;;;;;;4995450;28;20022;-73
2021/11/22 06:26:21;;;;;;;188.40;51.95;;;4.80;99.90;;;;;;4978647;28;20026;-74
2021/11/22 06:28:47;;;;;;;148.35;63.13;;;4.80;99.90;;;;;;4995662;28;20097;-74
2021/11/22 06:31:13;;;;;;;162.95;62.55;;;4.80;99.90;;;;;;4995892;28;20121;-74
2021/11/22 06:33:38;;;;;;;123.13;45.00;;;4.80;99.90;;;;;;4995719;28;20038;-74
2021/11/22 06:36:04;;;;;;;111.72;42.85;;;4.80;99.90;;;;;;4996333;28;20041;-73
2021/11/22 06:38:33;;;;;;;128.05;40.65;;;4.80;99.90;;;;;;4994993;28;20100;-74
2021/11/22 06:40:59;;;;;;;119.13;44.88;;;4.80;99.90;;;;;;4978109;28;20415;-74
2021/11/22 06:43:26;;;;;;;129.15;46.67;;;4.80;99.90;;;;;;4996417;28;20030;-73
2021/11/22 06:45:51;;;;;;;114.72;45.88;;;4.80;99.90;;;;;;4988565;28;20026;-74
2021/11/22 06:48:17;;;;;;;122.13;37.45;;;4.90;99.90;;;;;;4995371;28;20527;-73
2021/11/22 06:50:43;;;;;;;115.75;44.20;;;4.80;99.90;;;;;;4990551;28;20029;-74
2021/11/22 06:53:08;;;;;;;103.57;39.70;;;4.80;99.90;;;;;;4994080;28;20018;-74
2021/11/22 06:55:34;;;;;;;93.90;31.38;;;4.80;99.90;;;;;;4994096;28;20097;-74
2021/11/22 06:58:00;;;;;;;75.45;32.22;;;4.80;99.90;;;;;;4976617;28;20050;-74
2021/11/22 07:00:25;;;;;;;89.50;33.92;;;4.80;99.90;;;;;;4995499;28;20034;-73
2021/11/22 07:02:51;;;;;;;88.47;34.65;;;4.90;99.90;;;;;;4994899;28;20121;-74
2021/11/22 07:05:22;;;;;;;77.82;32.38;;;4.90;99.90;;;;;;4976860;28;20137;-73
2021/11/22 07:07:49;;;;;;;83.35;36.95;;;4.90;99.90;;;;;;4997480;28;20407;-74
2021/11/22 07:10:14;;;;;;;78.10;32.45;;;4.90;99.90;;;;;;4976312;28;20121;-74
2021/11/22 07:12:41;;;;;;;79.97;28.73;;;4.90;99.90;;;;;;4998027;28;20097;-74
2021/11/22 07:15:08;;;;;;;70.55;28.73;;;4.90;99.90;;;;;;4994672;28;20023;-74
2021/11/22 07:17:34;;;;;;;69.57;25.50;;;4.90;99.90;;;;;;4977601;28;20080;-74
2021/11/22 07:20:00;;;;;;;68.20;24.80;;;4.90;99.90;;;;;;4995412;28;20464;-74
2021/11/22 07:22:26;;;;;;;72.57;27.80;;;4.90;99.90;;;;;;4995500;28;20034;-74
2021/11/22 07:24:52;;;;;;;63.30;27.23;;;5.00;99.90;;;;;;4994791;28;20089;-74
2021/11/22 07:27:24;;;;;;;65.57;26.65;;;4.90;99.90;;;;;;4991879;28;20101;-74
2021/11/22 07:29:50;;;;;;;56.30;23.48;;;5.00;99.90;;;;;;4989420;28;20030;-73
2021/11/22 07:32:15;;;;;;;60.53;26.13;;;5.00;99.90;;;;;;4989654;28;20076;-73
2021/11/22 07:34:41;;;;;;;61.15;24.15;;;5.00;99.90;;;;;;4989361;28;20033;-74
2021/11/22 07:37:08;;;;;;;56.25;23.23;;;5.00;99.90;;;;;;4990783;28;20019;-74
2021/11/22 07:39:33;;;;;;;53.50;25.02;;;5.00;99.90;;;;;;4980430;28;20030;-74
2021/11/22 07:41:59;;;;;;;56.13;25.25;;;5.10;99.90;;;;;;4978023;28;20034;-74
2021/11/22 07:44:25;;;;;;;56.03;26.75;;;5.10;99.90;;;;;;4976821;28;20026;-74
2021/11/22 07:46:56;;;;;;;52.83;23.60;;;5.20;99.90;;;;;;4991548;28;20480;-74
2021/11/22 07:49:22;;;;;;;50.83;21.55;;;5.20;99.90;;;;;;4991361;28;20372;-74
2021/11/22 07:51:48;;;;;;;46.65;24.25;;;5.20;99.90;;;;;;4991674;28;20014;-74
2021/11/22 07:54:15;;;;;;;51.60;26.58;;;5.20;99.90;;;;;;4991214;28;20080;-74
2021/11/22 07:56:41;;;;;;;46.10;24.55;;;5.20;99.90;;;;;;4992583;28;20101;-74
2021/11/22 07:59:07;;;;;;;23.85;13.15;;;5.10;99.90;;;;;;4992166;28;20496;-74
2021/11/22 08:01:32;;;;;;;20.35;9.70;;;5.00;99.90;;;;;;4993215;28;20041;-75
2021/11/22 08:03:58;;;;;;;15.95;9.35;;;4.90;99.90;;;;;;4993671;28;20018;-74
2021/11/22 08:06:25;;;;;;;13.48;8.98;;;4.80;99.90;;;;;;4991584;28;20025;-74
2021/11/22 08:08:52;;;;;;;22.20;14.15;;;4.70;99.90;;;;;;4991911;28;20128;-74
2021/11/22 08:11:30;;;;;;;28.40;19.10;;;4.70;99.90;;;;;;4992555;28;20026;-73
2021/11/22 08:13:56;;;;;;;36.42;24.15;;;4.80;99.90;;;;;;4991589;28;20471;-74
2021/11/22 08:16:22;;;;;;;24.65;14.88;;;4.70;99.90;;;;;;4977561;28;20045;-74
2021/11/22 08:18:48;;;;;;;17.27;9.38;;;4.70;99.90;;;;;;4992787;28;20515;-74
2021/11/22 08:21:13;;;;;;;19.95;10.93;;;4.80;99.90;;;;;;4992507;28;20033;-73
2021/11/22 08:23:39;;;;;;;14.68;9.85;;;4.80;99.90;;;;;;4992594;28;20018;-74
2021/11/22 08:26:06;;;;;;;10.32;6.50;;;4.80;99.90;;;;;;4991944;28;20041;-73
2021/11/22 08:28:32;;;;;;;13.00;6.25;;;4.70;99.90;;;;;;4992931;28;20030;-74
2021/11/22 08:30:58;;;;;;;14.98;6.85;;;4.70;99.90;;;;;;4978939;28;20050;-74
2021/11/22 08:33:24;;;;;;;10.93;6.40;;;4.70;99.90;;;;;;4992885;28;20062;-74
2021/11/22 08:35:50;;;;;;;15.98;8.77;;;4.70;99.90;;;;;;4992197;28;20057;-74
2021/11/22 08:38:17;;;;;;;17.98;9.80;;;4.70;99.90;;;;;;4992858;28;20129;-74
2021/11/22 08:40:43;;;;;;;17.88;8.20;;;4.70;99.90;;;;;;4989949;28;20050;-74
2021/11/22 08:43:11;;;;;;;14.57;6.88;;;4.70;99.90;;;;;;4987839;28;20041;-74
2021/11/22 08:45:38;;;;;;;17.80;10.18;;;4.70;99.90;;;;;;4989401;28;20105;-73
2021/11/22 08:48:05;;;;;;;16.05;7.85;;;4.80;99.90;;;;;;4978685;28;20018;-73
2021/11/22 08:50:31;;;;;;;10.65;6.03;;;4.80;99.90;;;;;;4977936;28;20073;-74
2021/11/22 08:52:56;;;;;;;10.88;6.05;;;4.70;99.90;;;;;;4993108;28;20062;-73
2021/11/22 08:55:22;;;;;;;11.38;6.70;;;4.70;99.90;;;;;;4992169;28;20033;-74
2021/11/22 08:57:49;;;;;;;9.43;5.10;;;4.80;99.90;;;;;;4977995;28;20027;-74
2021/11/22 09:00:25;;;;;;;8.80;5.20;;;4.70;99.90;;;;;;4983155;28;20471;-73
2021/11/22 09:02:51;;;;;;;18.30;8.85;;;4.70;99.90;;;;;;4992470;28;20496;-73
2021/11/22 09:05:17;;;;;;;19.40;9.35;;;4.70;99.90;;;;;;4992057;28;20148;-74
2021/11/22 09:07:42;;;;;;;8.98;4.38;;;4.70;99.90;;;;;;4991394;28;20530;-73
2021/11/22 09:10:08;;;;;;;5.25;2.72;;;4.60;99.90;;;;;;4986280;28;20018;-74
2021/11/22 09:12:34;;;;;;;11.07;3.90;;;4.60;99.90;;;;;;4991056;28;20075;-74
2021/11/22 09:15:00;;;;;;;6.43;3.47;;;4.70;99.90;;;;;;4992089;28;20018;-74
2021/11/22 09:17:26;;;;;;;9.93;3.92;;;4.60;99.90;;;;;;4978530;28;20026;-74
2021/11/22 09:19:51;;;;;;;6.95;4.43;;;4.60;99.90;;;;;;4991743;28;21076;-73
2021/11/22 09:22:17;;;;;;;12.35;6.82;;;4.70;99.90;;;;;;4974051;28;20042;-74
2021/11/22 09:24:43;;;;;;;13.57;8.68;;;4.80;99.90;;;;;;4994732;28;20026;-73
2021/11/22 09:27:09;;;;;;;11.70;6.18;;;4.70;99.90;;;;;;4992018;28;20484;-73
2021/11/22 09:29:36;;;;;;;6.43;4.55;;;4.70;99.90;;;;;;4991754;28;20468;-74
2021/11/22 09:32:03;;;;;;;9.48;4.93;;;4.80;99.90;;;;;;4981572;28;20026;-74
2021/11/22 09:34:28;;;;;;;9.85;4.40;;;4.80;99.90;;;;;;4992141;28;20411;-74
2021/11/22 09:36:54;;;;;;;8.68;4.75;;;4.90;99.90;;;;;;4991858;28;20032;-74
2021/11/22 09:39:22;;;;;;;17.35;7.65;;;4.90;99.90;;;;;;4990772;28;20110;-74
2021/11/22 09:41:49;;;;;;;22.67;14.00;;;4.90;99.90;;;;;;4982123;28;20133;-74
2021/11/22 09:44:20;;;;;;;24.88;12.27;;;4.90;99.90;;;;;;4992198;28;20101;-73
2021/11/22 09:46:47;;;;;;;11.52;7.03;;;5.00;99.90;;;;;;4981075;28;20061;-74
2021/11/22 09:49:13;;;;;;;12.52;7.05;;;5.00;99.90;;;;;;4992681;28;20018;-74
2021/11/22 09:51:38;;;;;;;12.95;6.93;;;5.10;99.90;;;;;;4982531;28;20403;-74
2021/11/22 09:54:05;;;;;;;7.88;5.38;;;5.10;99.90;;;;;;4992989;28;20019;-74
2021/11/22 09:56:34;;;;;;;10.43;5.35;;;5.00;99.90;;;;;;4991333;28;20026;-74
2021/11/22 09:59:00;;;;;;;9.98;5.72;;;5.10;99.90;;;;;;4984743;28;20054;-74
2021/11/22 10:01:30;;;;;;;10.77;6.20;;;5.10;99.90;;;;;;4992972;28;20088;-75
2021/11/22 10:04:14;;;;;;;8.50;5.13;;;5.10;99.90;;;;;;4993141;28;20022;-73
2021/11/22 10:06:51;;;;;;;20.95;10.32;;;5.10;99.90;;;;;;4993259;28;20471;-74
2021/11/22 10:09:32;;;;;;;11.88;6.88;;;5.10;99.90;;;;;;4990993;28;20023;-74
2021/11/22 10:12:01;;;;;;;12.00;5.93;;;5.20;99.90;;;;;;4993018;28;20080;-74
2021/11/22 10:14:37;;;;;;;11.20;5.22;;;5.20;99.90;;;;;;4995701;28;20027;-74
2021/11/22 10:17:19;;;;;;;12.68;5.60;;;5.30;99.90;;;;;;4984268;28;20476;-74
2021/11/22 10:19:44;;;;;;;7.78;4.43;;;5.40;99.90;;;;;;4995255;28;20026;-74
2021/11/22 10:22:20;;;;;;;11.20;4.70;;;5.40;99.90;;;;;;4982380;28;20491;-74
2021/11/22 10:24:46;;;;;;;11.15;4.90;;;5.40;99.90;;;;;;4989319;28;20049;-74
2021/11/22 10:27:32;;;;;;;9.38;5.85;;;5.30;99.90;;;;;;4995231;28;20026;-74
2021/11/22 10:30:22;;;;;;;10.13;5.47;;;5.30;99.90;;;;;;4986640;28;20054;-74
2021/11/22 10:32:51;;;;;;;13.23;6.38;;;5.30;99.90;;;;;;4988172;28;20069;-73
2021/11/22 10:35:18;;;;;;;10.55;5.65;;;5.40;99.90;;;;;;4993090;28;20026;-74
2021/11/22 10:38:00;;;;;;;10.43;6.00;;;5.40;99.90;;;;;;4993481;28;20167;-74
2021/11/22 10:40:28;;;;;;;8.13;5.65;;;5.40;99.90;;;;;;4992824;28;20050;-73
2021/11/22 10:42:56;;;;;;;13.88;6.97;;;5.40;99.90;;;;;;4990691;28;20023;-74
2021/11/22 10:45:48;;;;;;;19.58;10.30;;;5.40;99.90;;;;;;4985215;28;20030;-76
2021/11/22 10:48:26;;;;;;;9.52;5.13;;;5.30;99.90;;;;;;4968275;28;20035;-74
2021/11/22 10:51:16;;;;;;;13.23;6.03;;;5.30;99.90;;;;;;4992948;28;20031;-74
2021/11/22 10:53:48;;;;;;;15.32;7.85;;;5.20;99.90;;;;;;4983042;28;20041;-74
2021/11/22 10:56:27;;;;;;;16.92;8.10;;;5.30;99.90;;;;;;4994632;28;20113;-74
2021/11/22 10:59:08;;;;;;;12.57;6.35;;;5.20;99.90;;;;;;4993166;28;20080;-74
2021/11/22 11:01:39;;;;;;;27.77;16.55;;;5.10;99.90;;;;;;4992732;28;20484;-74
2021/11/22 11:04:07;;;;;;;29.58;18.45;;;5.10;99.90;;;;;;4995382;28;20026;-74
2021/11/22 11:06:35;;;;;;;30.63;14.13;;;5.10;99.90;;;;;;4978020;28;20085;-74
2021/11/22 11:09:04;;;;;;;18.58;9.27;;;5.10;99.90;;;;;;4990865;28;20089;-74
2021/11/22 11:11:30;;;;;;;14.57;7.13;;;5.10;99.90;;;;;;4995890;28;20033;-74
2021/11/22 11:13:55;;;;;;;11.45;5.32;;;5.00;99.90;;;;;;4995232;28;20388;-74
2021/11/22 11:16:21;;;;;;;12.82;6.85;;;5.10;99.90;;;;;;4982643;28;20093;-75
2021/11/22 11:18:58;;;;;;;14.65;5.05;;;5.10;99.90;;;;;;4995049;28;20022;-76
2021/11/22 11:21:30;;;;;;;6.68;3.90;;;5.00;99.90;;;;;;4974928;28;20030;-74
2021/11/22 11:23:58;;;;;;;6.87;3.90;;;4.90;99.90;;;;;;4978182;28;20026;-74
2021/11/22 11:26:25;;;;;;;8.13;3.95;;;4.90;99.90;;;;;;4995449;28;20026;-74
2021/11/22 11:28:52;;;;;;;12.35;6.53;;;4.90;99.90;;;;;;4995289;28;20122;-74
2021/11/22 11:31:17;;;;;;;10.25;5.03;;;4.90;99.90;;;;;;4994219;28;20030;-74
2021/11/22 11:33:44;;;;;;;4.72;2.67;;;4.90;99.90;;;;;;4995029;28;20033;-75
2021/11/22 11:36:35;;;;;;;8.57;5.13;;;4.80;99.90;;;;;;4993375;28;20027;-74
2021/11/22 11:39:20;;;;;;;14.50;7.03;;;4.90;99.90;;;;;;4983154;28;20092;-75
2021/11/22 11:41:56;;;;;;;7.68;4.47;;;5.00;99.90;;;;;;4995042;28;20117;-74
2021/11/22 11:44:49;;;;;;;9.63;5.25;;;5.10;99.90;;;;;;4994875;28;20118;-74
2021/11/22 11:47:33;;;;;;;;;;;5.10;99.90;;;;;;4980731;28;20014;-74
2021/11/22 11:50:16;;;;;;;;;;;5.10;99.90;;;;;;4993299;28;19993;-75
2021/11/22 11:52:54;;;;;;;9.07;4.63;;;5.20;99.90;;;;;;4992886;28;19946;-74
2021/11/22 11:55:20;;;;;;;7.47;3.55;;;5.20;99.90;;;;;;4992810;28;20022;-74
2021/11/22 11:57:46;;;;;;;6.35;3.67;;;5.20;99.90;;;;;;4992617;28;20030;-74
2021/11/22 12:00:24;;;;;;;6.63;3.45;;;5.20;99.90;;;;;;4975447;28;20034;-73
2021/11/22 12:03:03;;;;;;;10.13;3.45;;;5.10;99.90;;;;;;4994302;28;20044;-74
2021/11/22 12:05:46;;;;;;;8.13;4.70;;;5.20;99.90;;;;;;4986391;28;20029;-74
2021/11/22 12:08:25;;;;;;;9.88;5.15;;;5.20;99.90;;;;;;4994406;28;20168;-73
2021/11/22 12:10:52;;;;;;;11.05;5.80;;;5.20;99.90;;;;;;4994324;28;20029;-73
2021/11/22 12:13:18;;;;;;;7.57;4.28;;;5.20;99.90;;;;;;4993226;28;20033;-73
2021/11/22 12:15:47;;;;;;;10.95;6.53;;;5.20;99.90;;;;;;4994223;28;20484;-74
2021/11/22 12:18:32;;;;;;;10.10;5.40;;;5.20;99.90;;;;;;4994369;28;20022;-74
2021/11/22 12:21:06;;;;;;;8.48;5.22;;;5.20;99.90;;;;;;4994358;28;20053;-73
2021/11/22 12:23:41;;;;;;;6.78;5.10;;;5.20;99.90;;;;;;4992825;28;20045;-73
2021/11/22 12:26:08;;;;;;;8.60;5.10;;;5.20;99.90;;;;;;4994290;28;20022;-73
2021/11/22 12:28:33;;;;;;;14.50;7.22;;;5.30;99.90;;;;;;4994072;28;20035;-74
2021/11/22 12:31:11;;;;;;;16.52;8.35;;;5.20;99.90;;;;;;4993992;28;20031;-73
2021/11/22 12:33:52;;;;;;;18.52;11.13;;;5.20;99.90;;;;;;4994046;28;20471;-74
2021/11/22 12:36:20;;;;;;;17.55;9.98;;;5.20;99.90;;;;;;4976623;28;20041;-74
2021/11/22 12:38:48;;;;;;;15.80;9.55;;;5.20;99.90;;;;;;4976141;28;20026;-73
2021/11/22 12:41:22;;;;;;;27.45;13.88;;;5.20;99.90;;;;;;4993890;28;20153;-73
2021/11/22 12:43:51;;;;;;;18.38;10.45;;;5.20;99.90;;;;;;4993913;28;20395;-73